sensor_id;sensor_type;location;lat;lon;timestamp;P1;durP1;ratioP1;P2;durP2;ratioP2
12878;SDS011;20617;49.476;10.986;2024-03-29T00:00:19;3.47;;;1.80;;
12878;SDS011;20617;49.476;10.986;2024-03-29T00:02:20;2.40;;;1.90;;
12878;SDS011;20617;49.476;10.986;2024-03-29T00:04:20;4.15;;;2.35;;
12878;SDS011;20617;49.476;10.986;2024-03-29T00:06:21;2.95;;;1.65;;
12878;SDS011;20617;49.476;10.986;2024-03-29T00:08:22;2.60;;;1.80;;
12878;SDS011;20617;49.476;10.986;2024-03-29T00:10:22;3.80;;;2.15;;
12878;SDS011;20617;49.476;10.986;2024-03-29T00:12:25;3.50;;;2.28;;
12878;SDS011;20617;49.476;10.986;2024-03-29T00:14:31;4.38;;;1.70;;
12878;SDS011;20617;49.476;10.986;2024-03-29T00:18:32;3.17;;;1.90;;
12878;SDS011;20617;49.476;10.986;2024-03-29T00:20:33;2.50;;;1.80;;
12878;SDS011;20617;49.476;10.986;2024-03-29T00:22:33;3.17;;;1.65;;
12878;SDS011;20617;49.476;10.986;2024-03-29T00:24:34;3.72;;;1.70;;
12878;SDS011;20617;49.476;10.986;2024-03-29T00:26:35;3.50;;;1.73;;
12878;SDS011;20617;49.476;10.986;2024-03-29T00:28:36;2.80;;;1.70;;
12878;SDS011;20617;49.476;10.986;2024-03-29T00:30:39;3.75;;;2.28;;
12878;SDS011;20617;49.476;10.986;2024-03-29T00:32:40;3.85;;;1.90;;
12878;SDS011;20617;49.476;10.986;2024-03-29T00:34:40;3.50;;;2.20;;
12878;SDS011;20617;49.476;10.986;2024-03-29T00:36:41;4.72;;;2.58;;
12878;SDS011;20617;49.476;10.986;2024-03-29T00:38:42;2.95;;;2.00;;
12878;SDS011;20617;49.476;10.986;2024-03-29T00:40:42;3.13;;;2.00;;
12878;SDS011;20617;49.476;10.986;2024-03-29T00:42:43;4.82;;;2.10;;
12878;SDS011;20617;49.476;10.986;2024-03-29T00:44:44;4.43;;;2.08;;
12878;SDS011;20617;49.476;10.986;2024-03-29T00:46:47;3.53;;;2.10;;
12878;SDS011;20617;49.476;10.986;2024-03-29T00:48:48;2.92;;;2.03;;
12878;SDS011;20617;49.476;10.986;2024-03-29T00:50:49;3.05;;;1.73;;
12878;SDS011;20617;49.476;10.986;2024-03-29T00:52:50;3.53;;;1.92;;
12878;SDS011;20617;49.476;10.986;2024-03-29T00:54:50;3.17;;;2.00;;
12878;SDS011;20617;49.476;10.986;2024-03-29T00:56:51;3.60;;;1.80;;
12878;SDS011;20617;49.476;10.986;2024-03-29T00:58:52;3.72;;;2.00;;
12878;SDS011;20617;49.476;10.986;2024-03-29T01:00:53;5.40;;;2.25;;
12878;SDS011;20617;49.476;10.986;2024-03-29T01:02:56;2.95;;;1.75;;
12878;SDS011;20617;49.476;10.986;2024-03-29T01:04:57;4.60;;;1.83;;
12878;SDS011;20617;49.476;10.986;2024-03-29T01:06:57;3.63;;;1.45;;
12878;SDS011;20617;49.476;10.986;2024-03-29T01:08:58;3.20;;;1.60;;
12878;SDS011;20617;49.476;10.986;2024-03-29T01:11:00;3.25;;;1.50;;
12878;SDS011;20617;49.476;10.986;2024-03-29T01:13:00;2.65;;;1.65;;
12878;SDS011;20617;49.476;10.986;2024-03-29T01:15:01;4.38;;;1.90;;
12878;SDS011;20617;49.476;10.986;2024-03-29T01:17:02;2.08;;;1.40;;
12878;SDS011;20617;49.476;10.986;2024-03-29T01:19:05;2.17;;;1.48;;
12878;SDS011;20617;49.476;10.986;2024-03-29T01:21:06;2.85;;;1.50;;
12878;SDS011;20617;49.476;10.986;2024-03-29T01:23:07;3.40;;;1.65;;
12878;SDS011;20617;49.476;10.986;2024-03-29T01:25:08;2.42;;;1.30;;
12878;SDS011;20617;49.476;10.986;2024-03-29T01:27:08;2.88;;;1.55;;
12878;SDS011;20617;49.476;10.986;2024-03-29T01:29:09;3.45;;;1.48;;
12878;SDS011;20617;49.476;10.986;2024-03-29T01:31:10;2.33;;;1.77;;
12878;SDS011;20617;49.476;10.986;2024-03-29T01:33:12;3.80;;;1.73;;
12878;SDS011;20617;49.476;10.986;2024-03-29T01:35:16;2.70;;;1.50;;
12878;SDS011;20617;49.476;10.986;2024-03-29T01:37:17;2.20;;;1.63;;
12878;SDS011;20617;49.476;10.986;2024-03-29T01:39:17;2.15;;;1.50;;
12878;SDS011;20617;49.476;10.986;2024-03-29T01:41:18;2.80;;;1.50;;
12878;SDS011;20617;49.476;10.986;2024-03-29T01:43:19;4.95;;;1.35;;
12878;SDS011;20617;49.476;10.986;2024-03-29T01:45:19;3.05;;;1.55;;
12878;SDS011;20617;49.476;10.986;2024-03-29T01:47:20;2.10;;;1.30;;
12878;SDS011;20617;49.476;10.986;2024-03-29T01:49:21;3.08;;;1.30;;
12878;SDS011;20617;49.476;10.986;2024-03-29T01:51:24;2.17;;;1.42;;
12878;SDS011;20617;49.476;10.986;2024-03-29T01:53:25;2.53;;;1.33;;
12878;SDS011;20617;49.476;10.986;2024-03-29T01:55:28;3.25;;;1.20;;
12878;SDS011;20617;49.476;10.986;2024-03-29T01:57:30;2.65;;;1.48;;
12878;SDS011;20617;49.476;10.986;2024-03-29T01:59:31;4.72;;;1.90;;
12878;SDS011;20617;49.476;10.986;2024-03-29T02:01:33;3.00;;;1.50;;
12878;SDS011;20617;49.476;10.986;2024-03-29T02:03:34;1.90;;;1.25;;
12878;SDS011;20617;49.476;10.986;2024-03-29T02:05:34;2.25;;;1.17;;
12878;SDS011;20617;49.476;10.986;2024-03-29T02:07:38;3.10;;;1.30;;
12878;SDS011;20617;49.476;10.986;2024-03-29T02:09:39;2.83;;;1.45;;
12878;SDS011;20617;49.476;10.986;2024-03-29T02:11:40;2.10;;;1.45;;
12878;SDS011;20617;49.476;10.986;2024-03-29T02:13:41;2.90;;;1.40;;
12878;SDS011;20617;49.476;10.986;2024-03-29T02:15:42;3.28;;;1.55;;
12878;SDS011;20617;49.476;10.986;2024-03-29T02:17:42;4.35;;;1.20;;
12878;SDS011;20617;49.476;10.986;2024-03-29T02:19:43;2.72;;;1.30;;
12878;SDS011;20617;49.476;10.986;2024-03-29T02:21:45;2.30;;;1.15;;
12878;SDS011;20617;49.476;10.986;2024-03-29T02:26:00;1.92;;;1.15;;
12878;SDS011;20617;49.476;10.986;2024-03-29T02:30:56;2.40;;;1.15;;
12878;SDS011;20617;49.476;10.986;2024-03-29T02:32:57;1.70;;;1.05;;
12878;SDS011;20617;49.476;10.986;2024-03-29T02:34:58;3.47;;;1.10;;
12878;SDS011;20617;49.476;10.986;2024-03-29T02:36:59;1.73;;;1.30;;
12878;SDS011;20617;49.476;10.986;2024-03-29T02:39:02;2.10;;;1.10;;
12878;SDS011;20617;49.476;10.986;2024-03-29T02:41:03;1.85;;;1.08;;
12878;SDS011;20617;49.476;10.986;2024-03-29T02:43:04;2.10;;;1.08;;
12878;SDS011;20617;49.476;10.986;2024-03-29T02:45:05;2.20;;;1.30;;
12878;SDS011;20617;49.476;10.986;2024-03-29T02:47:06;2.72;;;1.40;;
12878;SDS011;20617;49.476;10.986;2024-03-29T02:49:07;1.70;;;1.20;;
12878;SDS011;20617;49.476;10.986;2024-03-29T02:51:08;2.45;;;1.10;;
12878;SDS011;20617;49.476;10.986;2024-03-29T02:53:08;1.48;;;1.10;;
12878;SDS011;20617;49.476;10.986;2024-03-29T02:55:12;3.90;;;0.95;;
12878;SDS011;20617;49.476;10.986;2024-03-29T02:57:12;1.92;;;1.17;;
12878;SDS011;20617;49.476;10.986;2024-03-29T02:59:13;1.58;;;1.00;;
12878;SDS011;20617;49.476;10.986;2024-03-29T03:01:14;4.65;;;1.17;;
12878;SDS011;20617;49.476;10.986;2024-03-29T03:03:15;1.70;;;1.15;;
12878;SDS011;20617;49.476;10.986;2024-03-29T03:05:16;1.88;;;1.25;;
12878;SDS011;20617;49.476;10.986;2024-03-29T03:07:17;1.17;;;0.88;;
12878;SDS011;20617;49.476;10.986;2024-03-29T03:09:18;1.40;;;0.95;;
12878;SDS011;20617;49.476;10.986;2024-03-29T03:11:21;0.90;;;0.75;;
12878;SDS011;20617;49.476;10.986;2024-03-29T03:13:22;3.78;;;1.20;;
12878;SDS011;20617;49.476;10.986;2024-03-29T03:15:23;2.45;;;1.20;;
12878;SDS011;20617;49.476;10.986;2024-03-29T03:17:23;3.47;;;1.10;;
12878;SDS011;20617;49.476;10.986;2024-03-29T03:19:25;2.42;;;1.38;;
12878;SDS011;20617;49.476;10.986;2024-03-29T03:21:25;2.05;;;1.20;;
12878;SDS011;20617;49.476;10.986;2024-03-29T03:23:26;3.80;;;1.27;;
12878;SDS011;20617;49.476;10.986;2024-03-29T03:25:27;1.75;;;0.77;;
12878;SDS011;20617;49.476;10.986;2024-03-29T03:27:30;1.90;;;0.90;;
12878;SDS011;20617;49.476;10.986;2024-03-29T03:29:31;2.35;;;1.05;;
12878;SDS011;20617;49.476;10.986;2024-03-29T03:31:32;1.45;;;0.90;;
12878;SDS011;20617;49.476;10.986;2024-03-29T03:33:32;2.17;;;0.82;;
12878;SDS011;20617;49.476;10.986;2024-03-29T03:35:33;1.83;;;1.10;;
12878;SDS011;20617;49.476;10.986;2024-03-29T03:37:34;2.05;;;0.70;;
12878;SDS011;20617;49.476;10.986;2024-03-29T03:39:35;3.28;;;0.95;;
12878;SDS011;20617;49.476;10.986;2024-03-29T03:41:35;2.13;;;0.82;;
12878;SDS011;20617;49.476;10.986;2024-03-29T03:43:39;2.20;;;0.93;;
12878;SDS011;20617;49.476;10.986;2024-03-29T03:45:40;3.03;;;1.00;;
12878;SDS011;20617;49.476;10.986;2024-03-29T03:47:41;1.27;;;0.98;;
12878;SDS011;20617;49.476;10.986;2024-03-29T03:49:41;1.13;;;0.80;;
12878;SDS011;20617;49.476;10.986;2024-03-29T03:51:42;1.65;;;0.95;;
12878;SDS011;20617;49.476;10.986;2024-03-29T03:53:43;3.20;;;0.90;;
12878;SDS011;20617;49.476;10.986;2024-03-29T03:55:43;2.75;;;0.80;;
12878;SDS011;20617;49.476;10.986;2024-03-29T03:57:44;1.83;;;0.73;;
12878;SDS011;20617;49.476;10.986;2024-03-29T03:59:50;1.80;;;0.68;;
12878;SDS011;20617;49.476;10.986;2024-03-29T04:01:51;1.05;;;0.80;;
12878;SDS011;20617;49.476;10.986;2024-03-29T04:03:52;1.83;;;0.90;;
12878;SDS011;20617;49.476;10.986;2024-03-29T04:05:52;1.40;;;0.80;;
12878;SDS011;20617;49.476;10.986;2024-03-29T04:07:53;1.80;;;1.15;;
12878;SDS011;20617;49.476;10.986;2024-03-29T04:09:54;1.90;;;0.90;;
12878;SDS011;20617;49.476;10.986;2024-03-29T04:11:54;1.75;;;1.00;;
12878;SDS011;20617;49.476;10.986;2024-03-29T04:13:55;0.93;;;0.65;;
12878;SDS011;20617;49.476;10.986;2024-03-29T04:16:03;1.50;;;0.90;;
12878;SDS011;20617;49.476;10.986;2024-03-29T04:18:06;2.17;;;0.95;;
12878;SDS011;20617;49.476;10.986;2024-03-29T04:20:07;2.20;;;0.80;;
12878;SDS011;20617;49.476;10.986;2024-03-29T04:22:08;2.00;;;0.88;;
12878;SDS011;20617;49.476;10.986;2024-03-29T04:24:09;2.17;;;0.93;;
12878;SDS011;20617;49.476;10.986;2024-03-29T04:26:10;1.80;;;0.88;;
12878;SDS011;20617;49.476;10.986;2024-03-29T04:28:10;1.27;;;0.70;;
12878;SDS011;20617;49.476;10.986;2024-03-29T04:30:11;1.73;;;0.88;;
12878;SDS011;20617;49.476;10.986;2024-03-29T04:32:16;1.95;;;0.95;;
12878;SDS011;20617;49.476;10.986;2024-03-29T04:34:17;2.80;;;0.85;;
12878;SDS011;20617;49.476;10.986;2024-03-29T04:36:17;1.15;;;0.90;;
12878;SDS011;20617;49.476;10.986;2024-03-29T04:38:18;1.88;;;1.00;;
12878;SDS011;20617;49.476;10.986;2024-03-29T04:40:19;1.33;;;0.80;;
12878;SDS011;20617;49.476;10.986;2024-03-29T04:42:19;1.65;;;0.88;;
12878;SDS011;20617;49.476;10.986;2024-03-29T04:44:23;0.80;;;0.70;;
12878;SDS011;20617;49.476;10.986;2024-03-29T04:46:24;4.05;;;0.85;;
12878;SDS011;20617;49.476;10.986;2024-03-29T04:48:30;2.67;;;0.60;;
12878;SDS011;20617;49.476;10.986;2024-03-29T04:50:31;0.90;;;0.70;;
12878;SDS011;20617;49.476;10.986;2024-03-29T04:52:31;1.58;;;0.80;;
12878;SDS011;20617;49.476;10.986;2024-03-29T04:54:32;0.88;;;0.82;;
12878;SDS011;20617;49.476;10.986;2024-03-29T04:56:33;2.15;;;0.98;;
12878;SDS011;20617;49.476;10.986;2024-03-29T04:58:34;0.88;;;0.80;;
12878;SDS011;20617;49.476;10.986;2024-03-29T05:00:35;1.38;;;0.82;;
12878;SDS011;20617;49.476;10.986;2024-03-29T05:02:35;4.18;;;0.75;;
12878;SDS011;20617;49.476;10.986;2024-03-29T05:04:39;2.15;;;0.80;;
12878;SDS011;20617;49.476;10.986;2024-03-29T05:06:40;1.35;;;1.00;;
12878;SDS011;20617;49.476;10.986;2024-03-29T05:08:41;1.52;;;0.85;;
12878;SDS011;20617;49.476;10.986;2024-03-29T05:10:43;1.88;;;0.80;;
12878;SDS011;20617;49.476;10.986;2024-03-29T05:12:43;1.42;;;0.90;;
12878;SDS011;20617;49.476;10.986;2024-03-29T05:14:44;1.40;;;0.77;;
12878;SDS011;20617;49.476;10.986;2024-03-29T05:16:45;0.93;;;0.93;;
12878;SDS011;20617;49.476;10.986;2024-03-29T05:18:46;1.23;;;0.80;;
12878;SDS011;20617;49.476;10.986;2024-03-29T05:20:49;1.65;;;0.52;;
12878;SDS011;20617;49.476;10.986;2024-03-29T05:22:50;1.67;;;0.70;;
12878;SDS011;20617;49.476;10.986;2024-03-29T05:24:52;1.38;;;0.60;;
12878;SDS011;20617;49.476;10.986;2024-03-29T05:26:53;2.03;;;0.73;;
12878;SDS011;20617;49.476;10.986;2024-03-29T05:28:54;1.83;;;1.08;;
12878;SDS011;20617;49.476;10.986;2024-03-29T05:30:55;0.75;;;0.70;;
12878;SDS011;20617;49.476;10.986;2024-03-29T05:32:55;0.40;;;0.40;;
12878;SDS011;20617;49.476;10.986;2024-03-29T05:34:57;0.60;;;0.60;;
12878;SDS011;20617;49.476;10.986;2024-03-29T05:37:00;0.75;;;0.70;;
12878;SDS011;20617;49.476;10.986;2024-03-29T05:39:01;1.02;;;0.63;;
12878;SDS011;20617;49.476;10.986;2024-03-29T05:41:02;0.60;;;0.60;;
12878;SDS011;20617;49.476;10.986;2024-03-29T05:43:04;0.85;;;0.70;;
12878;SDS011;20617;49.476;10.986;2024-03-29T05:45:20;1.30;;;0.50;;
12878;SDS011;20617;49.476;10.986;2024-03-29T05:47:23;0.80;;;0.60;;
12878;SDS011;20617;49.476;10.986;2024-03-29T05:49:24;0.50;;;0.50;;
12878;SDS011;20617;49.476;10.986;2024-03-29T05:51:24;1.02;;;0.60;;
12878;SDS011;20617;49.476;10.986;2024-03-29T05:53:28;3.10;;;0.50;;
12878;SDS011;20617;49.476;10.986;2024-03-29T05:55:29;0.90;;;0.60;;
12878;SDS011;20617;49.476;10.986;2024-03-29T05:57:29;1.55;;;0.93;;
12878;SDS011;20617;49.476;10.986;2024-03-29T05:59:30;1.33;;;0.75;;
12878;SDS011;20617;49.476;10.986;2024-03-29T06:01:31;0.82;;;0.70;;
12878;SDS011;20617;49.476;10.986;2024-03-29T06:03:32;0.60;;;0.50;;
12878;SDS011;20617;49.476;10.986;2024-03-29T06:05:32;0.80;;;0.63;;
12878;SDS011;20617;49.476;10.986;2024-03-29T06:07:33;0.90;;;0.70;;
12878;SDS011;20617;49.476;10.986;2024-03-29T06:09:36;0.70;;;0.60;;
12878;SDS011;20617;49.476;10.986;2024-03-29T06:11:37;0.77;;;0.70;;
12878;SDS011;20617;49.476;10.986;2024-03-29T06:13:38;1.52;;;0.82;;
12878;SDS011;20617;49.476;10.986;2024-03-29T06:15:39;3.20;;;0.80;;
12878;SDS011;20617;49.476;10.986;2024-03-29T06:17:40;1.20;;;0.88;;
12878;SDS011;20617;49.476;10.986;2024-03-29T06:19:40;1.95;;;0.95;;
12878;SDS011;20617;49.476;10.986;2024-03-29T06:21:41;0.63;;;0.60;;
12878;SDS011;20617;49.476;10.986;2024-03-29T06:23:42;1.33;;;0.80;;
12878;SDS011;20617;49.476;10.986;2024-03-29T06:25:45;1.75;;;0.88;;
12878;SDS011;20617;49.476;10.986;2024-03-29T06:27:46;0.90;;;0.80;;
12878;SDS011;20617;49.476;10.986;2024-03-29T06:29:48;0.77;;;0.55;;
12878;SDS011;20617;49.476;10.986;2024-03-29T06:31:49;0.75;;;0.68;;
12878;SDS011;20617;49.476;10.986;2024-03-29T06:33:50;0.70;;;0.63;;
12878;SDS011;20617;49.476;10.986;2024-03-29T06:35:53;0.52;;;0.43;;
12878;SDS011;20617;49.476;10.986;2024-03-29T06:37:55;2.13;;;0.85;;
12878;SDS011;20617;49.476;10.986;2024-03-29T06:39:56;1.13;;;0.60;;
12878;SDS011;20617;49.476;10.986;2024-03-29T06:42:00;1.15;;;0.70;;
12878;SDS011;20617;49.476;10.986;2024-03-29T06:44:02;1.10;;;0.70;;
12878;SDS011;20617;49.476;10.986;2024-03-29T06:46:04;2.00;;;1.05;;
12878;SDS011;20617;49.476;10.986;2024-03-29T06:48:06;1.92;;;0.60;;
12878;SDS011;20617;49.476;10.986;2024-03-29T06:50:07;1.15;;;0.90;;
12878;SDS011;20617;49.476;10.986;2024-03-29T06:52:09;1.17;;;0.80;;
12878;SDS011;20617;49.476;10.986;2024-03-29T06:54:09;1.05;;;0.75;;
12878;SDS011;20617;49.476;10.986;2024-03-29T06:56:10;0.77;;;0.65;;
12878;SDS011;20617;49.476;10.986;2024-03-29T06:58:15;1.38;;;0.63;;
12878;SDS011;20617;49.476;10.986;2024-03-29T07:00:16;0.73;;;0.65;;
12878;SDS011;20617;49.476;10.986;2024-03-29T07:02:18;2.78;;;0.90;;
12878;SDS011;20617;49.476;10.986;2024-03-29T07:04:19;1.23;;;0.80;;
12878;SDS011;20617;49.476;10.986;2024-03-29T07:06:20;1.50;;;0.70;;
12878;SDS011;20617;49.476;10.986;2024-03-29T07:08:21;1.42;;;1.02;;
12878;SDS011;20617;49.476;10.986;2024-03-29T07:10:22;0.95;;;0.85;;
12878;SDS011;20617;49.476;10.986;2024-03-29T07:12:26;1.10;;;0.73;;
12878;SDS011;20617;49.476;10.986;2024-03-29T07:14:31;0.75;;;0.47;;
12878;SDS011;20617;49.476;10.986;2024-03-29T07:16:32;1.58;;;0.90;;
12878;SDS011;20617;49.476;10.986;2024-03-29T07:18:33;2.75;;;0.80;;
12878;SDS011;20617;49.476;10.986;2024-03-29T07:20:33;0.77;;;0.70;;
12878;SDS011;20617;49.476;10.986;2024-03-29T07:22:34;1.50;;;0.60;;
12878;SDS011;20617;49.476;10.986;2024-03-29T07:24:35;2.05;;;0.80;;
12878;SDS011;20617;49.476;10.986;2024-03-29T07:26:36;1.65;;;0.75;;
12878;SDS011;20617;49.476;10.986;2024-03-29T07:28:37;0.40;;;0.40;;
12878;SDS011;20617;49.476;10.986;2024-03-29T07:30:41;1.48;;;0.45;;
12878;SDS011;20617;49.476;10.986;2024-03-29T07:32:42;0.65;;;0.55;;
12878;SDS011;20617;49.476;10.986;2024-03-29T07:34:43;1.67;;;0.63;;
12878;SDS011;20617;49.476;10.986;2024-03-29T07:36:43;0.88;;;0.57;;
12878;SDS011;20617;49.476;10.986;2024-03-29T07:38:44;1.20;;;0.68;;
12878;SDS011;20617;49.476;10.986;2024-03-29T07:40:45;0.90;;;0.60;;
12878;SDS011;20617;49.476;10.986;2024-03-29T07:42:46;1.58;;;0.80;;
12878;SDS011;20617;49.476;10.986;2024-03-29T07:44:47;1.70;;;0.60;;
12878;SDS011;20617;49.476;10.986;2024-03-29T07:46:50;0.70;;;0.57;;
12878;SDS011;20617;49.476;10.986;2024-03-29T07:48:51;1.75;;;0.90;;
12878;SDS011;20617;49.476;10.986;2024-03-29T07:50:51;0.63;;;0.50;;
12878;SDS011;20617;49.476;10.986;2024-03-29T07:52:52;1.38;;;0.70;;
12878;SDS011;20617;49.476;10.986;2024-03-29T07:54:53;1.25;;;0.60;;
12878;SDS011;20617;49.476;10.986;2024-03-29T07:56:53;1.33;;;0.60;;
12878;SDS011;20617;49.476;10.986;2024-03-29T07:58:54;0.47;;;0.30;;
12878;SDS011;20617;49.476;10.986;2024-03-29T08:00:55;1.17;;;0.80;;
12878;SDS011;20617;49.476;10.986;2024-03-29T08:02:58;1.83;;;0.80;;
12878;SDS011;20617;49.476;10.986;2024-03-29T08:04:59;4.20;;;0.98;;
12878;SDS011;20617;49.476;10.986;2024-03-29T08:07:00;2.25;;;1.00;;
12878;SDS011;20617;49.476;10.986;2024-03-29T08:09:01;1.55;;;0.85;;
12878;SDS011;20617;49.476;10.986;2024-03-29T08:11:02;1.75;;;0.95;;
12878;SDS011;20617;49.476;10.986;2024-03-29T08:13:02;1.25;;;0.80;;
12878;SDS011;20617;49.476;10.986;2024-03-29T08:15:04;3.90;;;0.57;;
12878;SDS011;20617;49.476;10.986;2024-03-29T08:17:05;1.27;;;0.60;;
12878;SDS011;20617;49.476;10.986;2024-03-29T08:19:09;1.25;;;0.90;;
12878;SDS011;20617;49.476;10.986;2024-03-29T08:21:10;0.52;;;0.50;;
12878;SDS011;20617;49.476;10.986;2024-03-29T08:23:10;1.20;;;0.80;;
12878;SDS011;20617;49.476;10.986;2024-03-29T08:25:11;1.25;;;0.60;;
12878;SDS011;20617;49.476;10.986;2024-03-29T08:27:12;1.10;;;0.82;;
12878;SDS011;20617;49.476;10.986;2024-03-29T08:29:13;3.50;;;1.35;;
12878;SDS011;20617;49.476;10.986;2024-03-29T08:31:14;1.65;;;1.23;;
12878;SDS011;20617;49.476;10.986;2024-03-29T08:33:15;1.05;;;0.77;;
12878;SDS011;20617;49.476;10.986;2024-03-29T08:35:18;1.95;;;1.23;;
12878;SDS011;20617;49.476;10.986;2024-03-29T08:37:19;1.45;;;1.05;;
12878;SDS011;20617;49.476;10.986;2024-03-29T08:39:20;1.40;;;0.90;;
12878;SDS011;20617;49.476;10.986;2024-03-29T08:41:20;2.45;;;1.00;;
12878;SDS011;20617;49.476;10.986;2024-03-29T08:43:21;1.95;;;1.40;;
12878;SDS011;20617;49.476;10.986;2024-03-29T08:45:22;2.13;;;1.75;;
12878;SDS011;20617;49.476;10.986;2024-03-29T08:47:23;1.80;;;1.20;;
12878;SDS011;20617;49.476;10.986;2024-03-29T08:49:24;1.55;;;0.85;;
12878;SDS011;20617;49.476;10.986;2024-03-29T08:51:29;2.92;;;2.15;;
12878;SDS011;20617;49.476;10.986;2024-03-29T08:53:30;4.10;;;2.03;;
12878;SDS011;20617;49.476;10.986;2024-03-29T08:55:31;1.80;;;1.50;;
12878;SDS011;20617;49.476;10.986;2024-03-29T08:57:32;1.63;;;1.17;;
12878;SDS011;20617;49.476;10.986;2024-03-29T08:59:33;2.70;;;1.52;;
12878;SDS011;20617;49.476;10.986;2024-03-29T09:01:36;1.73;;;1.02;;
12878;SDS011;20617;49.476;10.986;2024-03-29T09:03:37;2.15;;;0.70;;
12878;SDS011;20617;49.476;10.986;2024-03-29T09:05:38;2.72;;;0.80;;
12878;SDS011;20617;49.476;10.986;2024-03-29T09:07:41;1.30;;;0.90;;
12878;SDS011;20617;49.476;10.986;2024-03-29T09:09:42;2.85;;;0.85;;
12878;SDS011;20617;49.476;10.986;2024-03-29T09:11:42;1.85;;;1.00;;
12878;SDS011;20617;49.476;10.986;2024-03-29T09:13:43;2.05;;;1.10;;
12878;SDS011;20617;49.476;10.986;2024-03-29T09:15:44;1.70;;;0.95;;
12878;SDS011;20617;49.476;10.986;2024-03-29T09:17:44;2.90;;;1.13;;
12878;SDS011;20617;49.476;10.986;2024-03-29T09:19:49;1.75;;;1.00;;
12878;SDS011;20617;49.476;10.986;2024-03-29T09:21:49;1.40;;;0.80;;
12878;SDS011;20617;49.476;10.986;2024-03-29T09:23:55;2.63;;;1.02;;
12878;SDS011;20617;49.476;10.986;2024-03-29T09:25:56;2.08;;;1.00;;
12878;SDS011;20617;49.476;10.986;2024-03-29T09:27:57;1.00;;;0.73;;
12878;SDS011;20617;49.476;10.986;2024-03-29T09:29:58;1.88;;;0.90;;
12878;SDS011;20617;49.476;10.986;2024-03-29T09:31:59;3.47;;;1.15;;
12878;SDS011;20617;49.476;10.986;2024-03-29T09:33:59;1.60;;;1.00;;
12878;SDS011;20617;49.476;10.986;2024-03-29T09:36:00;3.03;;;1.20;;
12878;SDS011;20617;49.476;10.986;2024-03-29T09:38:01;2.40;;;1.67;;
12878;SDS011;20617;49.476;10.986;2024-03-29T09:40:05;2.38;;;1.52;;
12878;SDS011;20617;49.476;10.986;2024-03-29T09:42:07;3.40;;;1.25;;
12878;SDS011;20617;49.476;10.986;2024-03-29T09:44:14;4.05;;;1.20;;
12878;SDS011;20617;49.476;10.986;2024-03-29T09:46:15;2.90;;;1.00;;
12878;SDS011;20617;49.476;10.986;2024-03-29T09:48:16;3.10;;;1.20;;
12878;SDS011;20617;49.476;10.986;2024-03-29T09:50:17;1.55;;;0.98;;
12878;SDS011;20617;49.476;10.986;2024-03-29T09:52:18;3.75;;;1.10;;
12878;SDS011;20617;49.476;10.986;2024-03-29T09:54:20;2.85;;;1.50;;
12878;SDS011;20617;49.476;10.986;2024-03-29T09:56:24;1.50;;;1.00;;
12878;SDS011;20617;49.476;10.986;2024-03-29T09:58:25;3.63;;;1.70;;
12878;SDS011;20617;49.476;10.986;2024-03-29T10:00:26;4.40;;;1.85;;
12878;SDS011;20617;49.476;10.986;2024-03-29T10:02:28;2.15;;;1.67;;
12878;SDS011;20617;49.476;10.986;2024-03-29T10:04:31;2.85;;;1.83;;
12878;SDS011;20617;49.476;10.986;2024-03-29T10:06:34;2.00;;;1.50;;
12878;SDS011;20617;49.476;10.986;2024-03-29T10:08:37;4.43;;;3.28;;
12878;SDS011;20617;49.476;10.986;2024-03-29T10:10:38;3.17;;;2.13;;
12878;SDS011;20617;49.476;10.986;2024-03-29T10:12:42;4.07;;;2.53;;
12878;SDS011;20617;49.476;10.986;2024-03-29T10:14:43;5.15;;;2.95;;
12878;SDS011;20617;49.476;10.986;2024-03-29T10:16:44;2.75;;;1.75;;
12878;SDS011;20617;49.476;10.986;2024-03-29T10:18:46;4.40;;;2.85;;
12878;SDS011;20617;49.476;10.986;2024-03-29T10:20:57;3.28;;;2.33;;
12878;SDS011;20617;49.476;10.986;2024-03-29T10:22:59;3.90;;;2.42;;
12878;SDS011;20617;49.476;10.986;2024-03-29T10:25:02;5.82;;;2.80;;
12878;SDS011;20617;49.476;10.986;2024-03-29T10:27:04;3.92;;;2.30;;
12878;SDS011;20617;49.476;10.986;2024-03-29T10:29:07;2.78;;;1.83;;
12878;SDS011;20617;49.476;10.986;2024-03-29T10:31:08;4.78;;;1.30;;
12878;SDS011;20617;49.476;10.986;2024-03-29T10:33:09;3.50;;;1.70;;
12878;SDS011;20617;49.476;10.986;2024-03-29T10:35:10;3.42;;;1.40;;
12878;SDS011;20617;49.476;10.986;2024-03-29T10:37:11;2.38;;;1.15;;
12878;SDS011;20617;49.476;10.986;2024-03-29T10:39:11;2.78;;;1.35;;
12878;SDS011;20617;49.476;10.986;2024-03-29T10:41:12;2.67;;;1.38;;
12878;SDS011;20617;49.476;10.986;2024-03-29T10:43:13;2.53;;;1.58;;
12878;SDS011;20617;49.476;10.986;2024-03-29T10:45:19;5.10;;;1.92;;
12878;SDS011;20617;49.476;10.986;2024-03-29T10:47:22;2.42;;;1.50;;
12878;SDS011;20617;49.476;10.986;2024-03-29T10:49:27;5.18;;;1.73;;
12878;SDS011;20617;49.476;10.986;2024-03-29T10:51:33;2.70;;;1.55;;
12878;SDS011;20617;49.476;10.986;2024-03-29T10:53:38;3.10;;;1.60;;
12878;SDS011;20617;49.476;10.986;2024-03-29T10:55:38;4.47;;;1.92;;
12878;SDS011;20617;49.476;10.986;2024-03-29T10:57:40;3.38;;;1.92;;
12878;SDS011;20617;49.476;10.986;2024-03-29T10:59:44;3.38;;;2.00;;
12878;SDS011;20617;49.476;10.986;2024-03-29T11:01:54;3.83;;;1.73;;
12878;SDS011;20617;49.476;10.986;2024-03-29T11:04:01;2.70;;;1.63;;
12878;SDS011;20617;49.476;10.986;2024-03-29T11:06:12;3.20;;;1.73;;
12878;SDS011;20617;49.476;10.986;2024-03-29T11:08:16;3.17;;;1.70;;
12878;SDS011;20617;49.476;10.986;2024-03-29T11:10:24;2.72;;;1.60;;
12878;SDS011;20617;49.476;10.986;2024-03-29T11:12:29;1.77;;;1.35;;
12878;SDS011;20617;49.476;10.986;2024-03-29T11:14:34;4.50;;;1.63;;
12878;SDS011;20617;49.476;10.986;2024-03-29T11:16:39;2.30;;;1.60;;
12878;SDS011;20617;49.476;10.986;2024-03-29T11:18:43;1.90;;;1.52;;
12878;SDS011;20617;49.476;10.986;2024-03-29T11:20:44;3.35;;;1.73;;
12878;SDS011;20617;49.476;10.986;2024-03-29T11:22:46;2.58;;;1.58;;
12878;SDS011;20617;49.476;10.986;2024-03-29T11:24:47;1.95;;;1.42;;
12878;SDS011;20617;49.476;10.986;2024-03-29T11:26:50;1.50;;;1.27;;
12878;SDS011;20617;49.476;10.986;2024-03-29T11:28:52;2.38;;;1.65;;
12878;SDS011;20617;49.476;10.986;2024-03-29T11:30:56;2.67;;;1.60;;
12878;SDS011;20617;49.476;10.986;2024-03-29T11:32:58;2.50;;;1.70;;
12878;SDS011;20617;49.476;10.986;2024-03-29T11:35:03;3.47;;;1.70;;
12878;SDS011;20617;49.476;10.986;2024-03-29T11:37:10;4.50;;;1.65;;
12878;SDS011;20617;49.476;10.986;2024-03-29T11:39:19;1.80;;;1.35;;
12878;SDS011;20617;49.476;10.986;2024-03-29T11:41:22;3.03;;;1.88;;
12878;SDS011;20617;49.476;10.986;2024-03-29T11:43:25;2.40;;;1.45;;
12878;SDS011;20617;49.476;10.986;2024-03-29T11:45:26;1.73;;;1.27;;
12878;SDS011;20617;49.476;10.986;2024-03-29T11:47:28;4.90;;;1.58;;
12878;SDS011;20617;49.476;10.986;2024-03-29T11:49:29;3.05;;;1.90;;
12878;SDS011;20617;49.476;10.986;2024-03-29T11:51:32;5.72;;;2.53;;
12878;SDS011;20617;49.476;10.986;2024-03-29T11:55:36;3.95;;;1.60;;
12878;SDS011;20617;49.476;10.986;2024-03-29T11:57:36;3.60;;;1.17;;
12878;SDS011;20617;49.476;10.986;2024-03-29T11:59:37;3.55;;;1.35;;
12878;SDS011;20617;49.476;10.986;2024-03-29T12:01:38;2.05;;;1.27;;
12878;SDS011;20617;49.476;10.986;2024-03-29T12:03:40;2.47;;;1.15;;
12878;SDS011;20617;49.476;10.986;2024-03-29T12:05:42;3.08;;;1.90;;
12878;SDS011;20617;49.476;10.986;2024-03-29T12:07:48;2.03;;;1.30;;
12878;SDS011;20617;49.476;10.986;2024-03-29T12:09:49;1.27;;;1.10;;